Time;durP1;ratioP1;P1;durP2;ratioP2;P2;SDS_P1;SDS_P2;PMS_P1;PMS_P2;Temp;Humidity;BMP_temperature;BMP_pressure;BME280_temperature;BME280_humidity;BME280_pressure;Samples;Min_cycle;Max_cycle;Signal;HPM_P1;HPM_P2
2022/07/22 00:00:47;;;;;;;7.75;4.03;;;20.50;97.60;;;;;;6200075;28;20065;-78
2022/07/22 00:03:49;;;;;;;5.82;4.45;;;20.50;97.60;;;;;;6198581;28;20050;-78
2022/07/22 00:06:51;;;;;;;6.35;4.13;;;20.50;97.70;;;;;;6199909;28;20065;-78
2022/07/22 00:09:52;;;;;;;9.77;5.00;;;20.50;97.80;;;;;;6199982;28;20042;-79
2022/07/22 00:12:54;;;;;;;7.72;4.53;;;20.60;97.80;;;;;;6201556;28;20047;-79
2022/07/22 00:15:58;;;;;;;3.90;3.50;;;20.70;97.60;;;;;;6198688;28;20053;-78
2022/07/22 00:18:59;;;;;;;5.72;4.13;;;20.70;97.40;;;;;;6200680;28;20050;-78
2022/07/22 00:22:01;;;;;;;5.10;4.13;;;20.70;97.30;;;;;;6205545;28;20052;-79
2022/07/22 00:25:04;;;;;;;6.03;4.22;;;20.70;97.30;;;;;;6201672;28;20043;-78
2022/07/22 00:28:06;;;;;;;6.50;4.20;;;20.70;97.40;;;;;;6202001;28;20096;-78
2022/07/22 00:31:09;;;;;;;5.65;4.38;;;20.60;97.50;;;;;;6201519;28;20065;-78
2022/07/22 00:34:10;;;;;;;8.20;4.43;;;20.60;97.60;;;;;;6203346;28;20046;-77
2022/07/22 00:37:12;;;;;;;9.95;4.63;;;20.50;97.60;;;;;;6201504;28;20046;-78
2022/07/22 00:40:14;;;;;;;5.78;4.03;;;20.50;97.70;;;;;;6201281;28;20051;-78
2022/07/22 00:43:16;;;;;;;4.78;4.25;;;20.40;97.80;;;;;;6201496;28;20066;-77
2022/07/22 00:46:19;;;;;;;4.93;3.90;;;20.40;97.90;;;;;;6198965;28;20061;-78
2022/07/22 00:49:20;;;;;;;7.53;5.28;;;20.40;98.00;;;;;;6198486;28;20061;-77
2022/07/22 00:52:23;;;;;;;10.75;5.53;;;20.30;98.20;;;;;;6195967;28;20050;-78
2022/07/22 00:55:24;;;;;;;9.88;5.72;;;20.30;98.70;;;;;;6194820;28;20144;-77
2022/07/22 00:58:26;;;;;;;7.50;5.55;;;20.40;98.70;;;;;;6198877;28;20057;-78
2022/07/22 01:01:29;;;;;;;10.60;6.32;;;20.40;98.80;;;;;;6203638;28;20051;-78
2022/07/22 01:04:31;;;;;;;9.98;6.57;;;20.40;98.90;;;;;;6200098;28;20054;-77
2022/07/22 01:07:33;;;;;;;12.35;5.72;;;20.60;98.70;;;;;;6197943;28;20053;-78
2022/07/22 01:10:35;;;;;;;7.70;5.50;;;20.70;98.80;;;;;;6199433;28;20066;-77
2022/07/22 01:13:37;;;;;;;7.03;5.55;;;20.70;98.60;;;;;;6204252;28;20050;-78
2022/07/22 01:16:40;;;;;;;12.57;5.30;;;20.80;98.40;;;;;;6204257;28;20078;-77
2022/07/22 01:19:42;;;;;;;9.80;5.18;;;20.80;98.30;;;;;;6202498;28;20061;-78
2022/07/22 01:22:45;;;;;;;7.07;5.10;;;20.80;98.30;;;;;;6203440;28;20512;-78
2022/07/22 01:25:47;;;;;;;6.85;4.72;;;20.80;98.20;;;;;;6206062;28;20056;-79
2022/07/22 01:28:49;;;;;;;7.88;4.88;;;20.80;98.10;;;;;;6198096;28;20424;-78
2022/07/22 01:31:51;;;;;;;10.10;5.60;;;20.60;98.20;;;;;;6200734;28;20046;-78
2022/07/22 01:34:52;;;;;;;7.05;4.85;;;20.70;98.50;;;;;;6201214;28;20054;-78
2022/07/22 01:37:55;;;;;;;9.95;6.35;;;20.70;98.50;;;;;;6204548;28;20056;-78
2022/07/22 01:40:57;;;;;;;8.23;5.30;;;20.70;98.50;;;;;;6206431;28;20578;-77
2022/07/22 01:43:59;;;;;;;7.65;5.40;;;20.60;98.60;;;;;;6211653;28;20072;-77
2022/07/22 01:47:01;;;;;;;8.00;5.60;;;20.60;98.80;;;;;;6211338;28;20046;-78
2022/07/22 01:50:03;;;;;;;9.10;6.00;;;20.60;98.90;;;;;;6211622;28;20139;-78
2022/07/22 01:53:06;;;;;;;8.88;5.53;;;20.70;98.90;;;;;;6213482;28;20101;-78
2022/07/22 01:56:08;;;;;;;7.85;5.68;;;20.60;98.90;;;;;;6213797;28;20058;-78
2022/07/22 01:59:10;;;;;;;9.73;6.45;;;20.60;98.90;;;;;;6213856;28;20058;-78
2022/07/22 02:02:11;;;;;;;6.32;4.85;;;20.60;98.80;;;;;;6213256;28;20060;-78
2022/07/22 02:05:13;;;;;;;10.18;5.80;;;20.50;98.80;;;;;;6213734;28;20042;-78
2022/07/22 02:08:16;;;;;;;8.10;5.25;;;20.50;98.90;;;;;;6215629;28;20050;-78
2022/07/22 02:11:18;;;;;;;10.68;6.18;;;20.40;98.90;;;;;;6212402;28;20484;-78
2022/07/22 02:14:20;;;;;;;6.75;5.30;;;20.40;98.90;;;;;;6211292;28;20118;-78
2022/07/22 02:17:21;;;;;;;8.23;6.47;;;20.30;99.10;;;;;;6210050;28;20153;-78
2022/07/22 02:20:24;;;;;;;10.02;5.72;;;20.30;99.40;;;;;;6206813;28;20052;-77
2022/07/22 02:23:27;;;;;;;8.75;6.05;;;20.30;99.40;;;;;;6211103;28;20050;-78
2022/07/22 02:26:29;;;;;;;11.20;5.38;;;20.20;99.40;;;;;;6210957;28;20066;-78
2022/07/22 02:29:30;;;;;;;8.75;5.65;;;20.20;99.60;;;;;;6200888;28;20060;-78
2022/07/22 02:32:32;;;;;;;9.60;5.55;;;20.20;99.60;;;;;;6231945;28;20054;-78
2022/07/22 02:35:34;;;;;;;9.25;5.57;;;20.20;99.60;;;;;;6233950;28;20053;-78
2022/07/22 02:38:37;;;;;;;7.00;5.53;;;20.10;99.60;;;;;;6229082;28;20052;-78
2022/07/22 02:41:39;;;;;;;8.80;5.57;;;20.00;99.60;;;;;;6208129;28;20046;-78
2022/07/22 02:44:41;;;;;;;8.02;6.13;;;20.00;99.70;;;;;;6204057;28;20185;-78
2022/07/22 02:47:48;;;;;;;6.18;5.00;;;20.00;99.80;;;;;;6202609;28;20054;-78
2022/07/22 02:50:49;;;;;;;5.65;4.68;;;19.90;99.90;;;;;;6203463;28;20493;-78
2022/07/22 02:53:53;;;;;;;7.55;5.95;;;19.90;99.90;;;;;;6201668;28;20050;-77
2022/07/22 02:56:54;;;;;;;6.95;5.20;;;19.80;99.90;;;;;;6201497;28;20054;-78
2022/07/22 02:59:56;;;;;;;5.15;4.40;;;19.80;99.90;;;;;;6200484;28;20156;-78
2022/07/22 03:02:58;;;;;;;10.93;5.82;;;19.80;99.90;;;;;;6209513;28;20278;-79
2022/07/22 03:06:00;;;;;;;7.03;5.03;;;19.80;99.90;;;;;;6209360;28;20050;-78
2022/07/22 03:09:04;;;;;;;8.73;5.97;;;19.80;99.90;;;;;;6200254;28;20061;-79
2022/07/22 03:12:06;;;;;;;7.47;6.13;;;19.70;99.90;;;;;;6199088;28;20049;-78
2022/07/22 03:15:08;;;;;;;7.30;5.95;;;19.70;99.90;;;;;;6198772;28;20073;-78
2022/07/22 03:18:10;;;;;;;12.43;6.63;;;19.60;99.90;;;;;;6199422;28;20525;-78
2022/07/22 03:21:12;;;;;;;6.88;5.45;;;19.60;99.90;;;;;;6199817;28;20050;-78
2022/07/22 03:24:15;;;;;;;7.93;6.38;;;19.50;99.90;;;;;;6198826;28;20061;-78
2022/07/22 03:27:16;;;;;;;8.48;5.72;;;19.50;99.90;;;;;;6199381;28;20426;-78
2022/07/22 03:30:18;;;;;;;7.18;5.68;;;19.50;99.90;;;;;;6199991;28;20055;-78
2022/07/22 03:33:20;;;;;;;8.30;5.03;;;19.40;99.90;;;;;;6197163;28;20047;-78
2022/07/22 03:36:21;;;;;;;8.95;5.72;;;19.50;99.90;;;;;;6200309;28;20068;-78
2022/07/22 03:39:24;;;;;;;10.68;5.90;;;19.50;99.90;;;;;;6200597;28;20061;-77
2022/07/22 03:42:26;;;;;;;6.65;5.13;;;19.50;99.90;;;;;;6203733;28;20039;-77
2022/07/22 03:45:28;;;;;;;8.55;5.30;;;19.50;99.90;;;;;;6200726;28;20476;-78
2022/07/22 03:48:30;;;;;;;9.13;6.40;;;19.50;99.90;;;;;;6199988;28;20050;-78
2022/07/22 03:51:31;;;;;;;14.63;5.82;;;19.50;99.90;;;;;;6200380;28;20046;-77
2022/07/22 03:54:34;;;;;;;8.70;6.03;;;19.40;99.90;;;;;;6200253;28;20043;-77
2022/07/22 03:57:36;;;;;;;10.05;5.88;;;19.40;99.90;;;;;;6199900;28;20444;-78
2022/07/22 04:00:38;;;;;;;7.85;6.72;;;19.40;99.90;;;;;;6198938;28;20053;-78
2022/07/22 04:03:40;;;;;;;7.97;5.47;;;19.40;99.90;;;;;;6198039;28;20054;-77
2022/07/22 04:06:41;;;;;;;9.07;5.75;;;19.40;99.90;;;;;;6199587;28;20058;-77
2022/07/22 04:09:45;;;;;;;8.43;6.07;;;19.40;99.90;;;;;;6200031;28;20065;-78
2022/07/22 04:12:46;;;;;;;8.98;5.82;;;19.40;99.90;;;;;;6199774;28;20416;-78
2022/07/22 04:15:48;;;;;;;6.35;5.18;;;19.30;99.90;;;;;;6200317;28;20088;-78
2022/07/22 04:18:50;;;;;;;6.70;5.60;;;19.30;99.90;;;;;;6201120;28;20501;-77
2022/07/22 04:21:51;;;;;;;9.35;7.80;;;19.40;99.90;;;;;;6200093;28;20073;-77
2022/07/22 04:24:54;;;;;;;7.80;5.30;;;19.50;99.90;;;;;;6199869;28;20050;-78
2022/07/22 04:27:56;;;;;;;12.95;5.88;;;19.60;99.90;;;;;;6198999;28;20046;-77
2022/07/22 04:30:58;;;;;;;9.07;5.30;;;19.70;99.90;;;;;;6194894;28;20046;-78
2022/07/22 04:34:00;;;;;;;10.55;6.05;;;19.80;99.90;;;;;;6179551;28;20541;-77
2022/07/22 04:37:02;;;;;;;8.63;6.60;;;20.00;99.90;;;;;;6175204;28;20129;-77
2022/07/22 04:40:07;;;;;;;11.55;6.63;;;20.20;99.70;;;;;;6191450;28;20440;-77
2022/07/22 04:43:08;;;;;;;10.30;5.90;;;20.40;99.50;;;;;;6198592;28;20053;-77
2022/07/22 04:46:10;;;;;;;10.68;6.47;;;20.40;99.30;;;;;;6197890;28;20053;-77
2022/07/22 04:49:12;;;;;;;7.57;5.78;;;20.40;99.20;;;;;;6198523;28;20432;-77
2022/07/22 04:52:13;;;;;;;8.38;5.80;;;20.60;99.20;;;;;;6198782;28;20137;-78
2022/07/22 04:55:16;;;;;;;9.55;6.72;;;20.90;98.80;;;;;;6200072;28;20047;-77
2022/07/22 04:58:18;;;;;;;9.70;5.38;;;21.40;97.90;;;;;;6200090;28;20069;-77
2022/07/22 05:01:20;;;;;;;11.20;6.15;;;21.80;96.90;;;;;;6199832;28;20042;-78
2022/07/22 05:04:22;;;;;;;11.02;5.47;;;22.30;95.70;;;;;;6199651;28;20058;-78
2022/07/22 05:07:23;;;;;;;6.60;5.15;;;22.70;94.80;;;;;;6199976;28;20050;-77
2022/07/22 05:10:27;;;;;;;12.45;4.88;;;22.90;93.80;;;;;;6203942;28;20046;-77
2022/07/22 05:13:29;;;;;;;8.20;4.45;;;22.80;93.60;;;;;;6205408;28;20054;-77
2022/07/22 05:16:30;;;;;;;8.75;4.10;;;23.10;93.20;;;;;;6204363;28;20050;-77
2022/07/22 05:19:32;;;;;;;5.90;4.70;;;24.30;91.20;;;;;;6205275;28;20054;-78
2022/07/22 05:22:34;;;;;;;7.30;4.78;;;25.80;86.60;;;;;;6207889;28;20042;-78
2022/07/22 05:25:38;;;;;;;7.05;4.75;;;27.00;80.30;;;;;;6207349;28;20575;-78
2022/07/22 05:28:40;;;;;;;6.57;4.10;;;27.80;75.20;;;;;;6206417;28;20054;-77
2022/07/22 05:31:41;;;;;;;6.80;4.80;;;28.30;71.80;;;;;;6203247;28;20054;-77
2022/07/22 05:34:43;;;;;;;6.32;4.18;;;29.00;69.40;;;;;;6201737;28;20061;-77
2022/07/22 05:37:45;;;;;;;6.32;3.35;;;29.60;67.10;;;;;;6209234;28;20050;-78
2022/07/22 05:40:48;;;;;;;7.93;4.03;;;30.30;62.60;;;;;;6206099;28;20528;-78
2022/07/22 05:43:49;;;;;;;9.40;5.15;;;31.10;60.00;;;;;;6207121;28;20046;-78
2022/07/22 05:46:51;;;;;;;3.95;3.53;;;32.20;57.20;;;;;;6210536;28;20050;-78
2022/07/22 05:49:53;;;;;;;8.00;4.97;;;33.00;53.90;;;;;;6212805;28;20062;-78
2022/07/22 05:52:55;;;;;;;5.35;3.60;;;33.60;51.60;;;;;;6212757;28;20046;-78
2022/07/22 05:55:58;;;;;;;8.00;4.03;;;33.80;50.80;;;;;;6209841;28;20050;-78
2022/07/22 05:58:59;;;;;;;6.57;3.40;;;34.50;49.40;;;;;;6223654;22;20050;-80
2022/07/22 06:02:01;;;;;;;5.03;3.60;;;34.80;47.40;;;;;;6202467;28;20594;-80
2022/07/22 06:05:04;;;;;;;7.72;3.72;;;35.10;46.60;;;;;;6202756;28;20043;-82
2022/07/22 06:08:06;;;;;;;8.52;3.63;;;35.50;46.20;;;;;;6208179;28;20042;-82
2022/07/22 06:11:09;;;;;;;5.00;3.25;;;35.80;45.50;;;;;;6208620;28;20058;-83
2022/07/22 06:14:10;;;;;;;7.32;3.92;;;36.60;44.00;;;;;;6207045;28;20046;-82
2022/07/22 06:17:12;;;;;;;5.95;4.18;;;36.20;43.20;;;;;;6205709;28;20043;-81
2022/07/22 06:20:14;;;;;;;4.25;3.60;;;35.60;44.10;;;;;;6206126;28;20307;-82
2022/07/22 06:23:16;;;;;;;7.13;3.38;;;36.30;44.00;;;;;;6206951;28;20061;-83
2022/07/22 06:26:19;;;;;;;8.05;3.30;;;37.20;42.50;;;;;;6207479;28;20056;-83
2022/07/22 06:29:20;;;;;;;6.53;4.22;;;37.80;41.10;;;;;;6207242;28;20042;-82
2022/07/22 06:32:22;;;;;;;5.43;3.80;;;37.60;40.70;;;;;;6201954;28;20061;-82
2022/07/22 06:35:25;;;;;;;6.50;3.58;;;36.80;41.80;;;;;;6208245;28;20077;-82
2022/07/22 06:38:27;;;;;;;4.38;3.35;;;36.70;42.50;;;;;;6210145;28;20077;-83
2022/07/22 06:41:30;;;;;;;6.72;3.88;;;36.80;41.80;;;;;;6207006;28;20049;-85
2022/07/22 06:44:31;;;;;;;5.07;3.22;;;36.60;42.00;;;;;;6209292;28;20058;-83
2022/07/22 06:47:35;;;;;;;4.35;3.50;;;35.80;42.70;;;;;;6211034;28;20058;-82
2022/07/22 06:50:36;;;;;;;8.27;4.47;;;35.00;43.60;;;;;;6207235;28;20050;-83
2022/07/22 06:53:39;;;;;;;5.80;3.85;;;34.90;44.40;;;;;;6209154;28;20046;-82
2022/07/22 06:56:42;;;;;;;4.85;3.30;;;35.20;44.10;;;;;;6208977;28;20061;-82
2022/07/22 06:59:44;;;;;;;5.45;3.53;;;35.80;43.80;;;;;;6210385;28;20074;-82
2022/07/22 07:02:46;;;;;;;7.43;3.95;;;36.20;42.70;;;;;;6209929;28;20054;-83
2022/07/22 07:05:48;;;;;;;7.82;4.53;;;35.60;43.40;;;;;;6207707;28;20070;-83
2022/07/22 07:08:50;;;;;;;5.75;3.97;;;35.60;43.80;;;;;;6207434;28;20060;-83
2022/07/22 07:11:53;;;;;;;4.47;3.78;;;35.70;43.30;;;;;;6203854;28;20053;-82
2022/07/22 07:14:55;;;;;;;7.47;3.90;;;35.20;44.00;;;;;;6203953;28;20488;-82
2022/07/22 07:17:57;;;;;;;7.80;4.13;;;35.70;43.70;;;;;;6204342;28;20050;-83
2022/07/22 07:20:59;;;;;;;9.68;3.75;;;36.20;43.10;;;;;;6205619;28;20201;-82
2022/07/22 07:24:01;;;;;;;7.60;3.30;;;37.00;42.60;;;;;;6204170;28;20053;-84
2022/07/22 07:27:04;;;;;;;14.90;4.38;;;37.50;41.30;;;;;;6204883;28;20046;-83
2022/07/22 07:30:08;;;;;;;9.75;4.15;;;38.50;40.40;;;;;;6203556;28;20496;-82
2022/07/22 07:33:10;;;;;;;5.80;3.78;;;38.90;39.20;;;;;;6204332;28;20132;-82
2022/07/22 07:36:12;;;;;;;6.22;3.50;;;38.00;39.70;;;;;;6188568;28;20050;-82
2022/07/22 07:39:14;;;;;;;5.90;3.55;;;37.60;41.10;;;;;;6189717;28;20073;-82
2022/07/22 07:42:17;;;;;;;4.82;3.67;;;37.70;40.50;;;;;;6183405;28;20375;-83
2022/07/22 07:45:18;;;;;;;10.95;4.20;;;37.80;40.30;;;;;;6180093;28;20459;-82
2022/07/22 07:48:20;;;;;;;5.78;3.50;;;37.80;40.10;;;;;;6178706;28;20051;-82
2022/07/22 07:51:22;;;;;;;5.00;3.50;;;37.50;40.60;;;;;;6179316;28;20057;-83
2022/07/22 07:54:24;;;;;;;4.90;3.33;;;38.30;40.20;;;;;;6178479;28;20054;-83
2022/07/22 07:57:27;;;;;;;3.80;3.40;;;38.70;39.40;;;;;;6175911;28;20054;-81
2022/07/22 08:00:32;;;;;;;6.03;4.80;;;38.00;39.60;;;;;;6177652;28;20051;-81
2022/07/22 08:03:33;;;;;;;7.85;4.00;;;35.60;42.50;;;;;;6173981;28;20623;-82
2022/07/22 08:06:35;;;;;;;8.55;3.97;;;33.10;46.30;;;;;;6180512;28;20047;-80
2022/07/22 08:09:37;;;;;;;4.63;3.63;;;31.60;49.70;;;;;;6177272;28;20058;-81
2022/07/22 08:12:40;;;;;;;6.82;4.03;;;31.20;51.70;;;;;;6176662;28;20054;-81
2022/07/22 08:15:42;;;;;;;6.88;3.70;;;30.80;52.20;;;;;;6176279;28;20398;-81
2022/07/22 08:18:44;;;;;;;6.28;3.85;;;30.40;53.50;;;;;;6178185;28;20136;-83
2022/07/22 08:21:46;;;;;;;9.40;4.07;;;30.20;54.10;;;;;;6176639;28;20055;-81
2022/07/22 08:24:48;;;;;;;6.60;4.05;;;29.60;55.20;;;;;;6176204;28;20488;-82
2022/07/22 08:27:51;;;;;;;10.35;4.40;;;29.00;57.30;;;;;;6178429;28;20047;-83
2022/07/22 08:30:53;;;;;;;6.13;4.03;;;28.70;58.70;;;;;;6176671;28;20054;-85
2022/07/22 08:33:54;;;;;;;8.68;4.13;;;28.80;58.90;;;;;;6175217;28;20408;-83
2022/07/22 08:36:56;;;;;;;5.78;3.92;;;28.50;59.40;;;;;;6176505;28;20055;-82
2022/07/22 08:39:58;;;;;;;5.60;4.38;;;28.50;59.90;;;;;;6177226;28;20057;-82
2022/07/22 08:43:02;;;;;;;6.82;3.45;;;28.40;60.10;;;;;;6177469;28;20047;-81
2022/07/22 08:46:04;;;;;;;6.10;3.88;;;28.60;60.70;;;;;;6175833;28;20540;-80
2022/07/22 08:49:06;;;;;;;12.55;4.00;;;28.70;60.10;;;;;;6175578;28;20048;-81
2022/07/22 08:52:08;;;;;;;8.65;3.45;;;28.90;60.00;;;;;;6175877;28;20055;-81
2022/07/22 08:55:10;;;;;;;5.25;3.53;;;29.00;59.80;;;;;;6177582;28;20038;-81
2022/07/22 08:58:14;;;;;;;8.43;3.95;;;29.20;59.50;;;;;;6175423;28;20043;-81
2022/07/22 09:01:18;;;;;;;5.30;3.45;;;29.50;58.30;;;;;;6177062;28;20065;-81
2022/07/22 09:04:19;;;;;;;5.53;3.15;;;29.50;58.50;;;;;;6175478;28;20051;-82
2022/07/22 09:07:29;;;;;;;7.97;3.30;;;29.90;58.50;;;;;;6176360;28;20425;-81
2022/07/22 09:10:33;;;;;;;3.90;3.42;;;30.10;57.40;;;;;;6175235;28;20057;-83
2022/07/22 09:13:36;;;;;;;7.55;3.65;;;30.30;56.90;;;;;;6176055;28;20054;-84
2022/07/22 09:16:42;;;;;;;7.47;3.28;;;30.10;56.70;;;;;;6176743;28;20523;-81
2022/07/22 09:19:44;;;;;;;7.20;3.13;;;30.10;57.20;;;;;;6173607;28;20047;-82
2022/07/22 09:22:47;;;;;;;7.43;3.22;;;30.30;57.50;;;;;;6176461;28;20237;-81
2022/07/22 09:25:50;;;;;;;5.18;3.40;;;30.40;56.50;;;;;;6175524;28;20066;-81
2022/07/22 09:28:56;;;;;;;4.57;3.28;;;30.50;56.20;;;;;;6176592;28;20424;-82
2022/07/22 09:31:58;;;;;;;6.83;3.60;;;30.40;56.30;;;;;;6176728;28;20055;-80
2022/07/22 09:35:03;;;;;;;4.22;3.63;;;30.40;56.30;;;;;;6175872;28;20051;-82
2022/07/22 09:38:07;;;;;;;8.63;3.78;;;30.30;56.60;;;;;;6172382;28;20047;-80
2022/07/22 09:41:09;;;;;;;8.68;3.08;;;30.30;56.70;;;;;;6175194;28;20050;-81
2022/07/22 09:44:24;;;;;;;8.85;3.55;;;30.60;56.50;;;;;;6175871;28;20047;-81
2022/07/22 09:47:30;;;;;;;7.55;3.50;;;30.80;55.20;;;;;;6176976;28;20051;-81
2022/07/22 09:50:34;;;;;;;4.43;3.22;;;31.00;55.50;;;;;;6176219;28;20129;-81
2022/07/22 09:53:36;;;;;;;8.68;3.13;;;31.40;54.60;;;;;;6175452;28;20043;-81
2022/07/22 09:56:39;;;;;;;6.32;3.58;;;31.50;54.30;;;;;;6175852;28;20054;-81
2022/07/22 09:59:42;;;;;;;4.93;3.40;;;31.70;53.90;;;;;;6179001;28;20050;-82
2022/07/22 10:02:47;;;;;;;6.15;3.58;;;31.70;53.10;;;;;;6181760;28;20057;-82
2022/07/22 10:05:50;;;;;;;5.07;3.22;;;31.80;53.60;;;;;;6183338;28;20054;-82
2022/07/22 10:08:52;;;;;;;4.65;2.95;;;32.30;52.40;;;;;;6186358;28;20057;-81
2022/07/22 10:11:55;;;;;;;5.13;3.47;;;32.90;50.90;;;;;;6183662;28;20058;-81
2022/07/22 10:14:58;;;;;;;5.45;3.15;;;33.60;49.90;;;;;;6181215;28;20049;-81
2022/07/22 10:18:03;;;;;;;7.20;2.92;;;34.10;48.90;;;;;;6180745;28;20540;-80
2022/07/22 10:21:07;;;;;;;4.18;2.90;;;34.50;47.30;;;;;;6180641;28;20057;-82
2022/07/22 10:24:13;;;;;;;3.50;2.70;;;34.50;47.60;;;;;;6180408;28;20047;-81
2022/07/22 10:27:15;;;;;;;6.85;3.28;;;34.20;47.20;;;;;;6180637;28;20047;-80
2022/07/22 10:30:20;;;;;;;4.55;2.92;;;33.50;48.30;;;;;;6179406;28;20067;-79
2022/07/22 10:33:22;;;;;;;7.50;3.00;;;32.80;48.70;;;;;;6181081;28;20556;-80
2022/07/22 10:36:33;;;;;;;5.72;3.03;;;32.30;50.40;;;;;;6176307;28;20051;-83
2022/07/22 10:39:35;;;;;;;4.38;2.53;;;32.60;50.10;;;;;;6184532;28;20477;-80
2022/07/22 10:43:05;;;;;;;5.38;3.13;;;33.20;49.30;;;;;;6180239;28;20057;-81
2022/07/22 10:46:09;;;;;;;4.78;3.20;;;33.70;48.00;;;;;;6178632;28;20089;-81
2022/07/22 10:49:11;;;;;;;4.60;2.78;;;34.00;47.80;;;;;;6176190;28;20050;-79
2022/07/22 10:52:20;;;;;;;3.75;2.45;;;34.10;47.40;;;;;;6175777;28;20058;-80
2022/07/22 10:55:23;;;;;;;4.88;2.72;;;34.40;46.90;;;;;;6177033;28;20520;-80
2022/07/22 10:58:52;;;;;;;7.07;2.63;;;34.80;46.20;;;;;;6175585;28;20058;-80
2022/07/22 11:01:57;;;;;;;5.90;2.67;;;34.70;45.40;;;;;;6174729;28;20051;-79
2022/07/22 11:04:59;;;;;;;4.45;3.28;;;34.20;46.70;;;;;;6175399;28;20059;-80
2022/07/22 11:08:01;;;;;;;4.03;2.60;;;34.00;46.80;;;;;;6174944;28;20043;-80
2022/07/22 11:11:02;;;;;;;4.22;2.78;;;34.40;46.10;;;;;;6176986;28;20051;-80
2022/07/22 11:14:11;;;;;;;8.85;2.67;;;34.10;46.30;;;;;;6176382;28;20046;-79
2022/07/22 11:17:14;;;;;;;7.38;3.13;;;34.20;46.90;;;;;;6176786;28;20051;-80
2022/07/22 11:20:16;;;;;;;3.03;2.70;;;34.60;45.40;;;;;;6176080;28;20572;-80
2022/07/22 11:23:17;;;;;;;3.75;2.85;;;34.50;45.70;;;;;;6177934;28;20145;-81
2022/07/22 11:26:25;;;;;;;4.75;2.95;;;34.40;45.60;;;;;;6176415;28;20531;-81
2022/07/22 11:29:28;;;;;;;5.80;2.63;;;34.70;45.20;;;;;;6176002;28;20047;-80
2022/07/22 11:32:32;;;;;;;3.95;2.40;;;35.10;45.20;;;;;;6178495;28;20459;-81
2022/07/22 11:35:34;;;;;;;5.57;2.38;;;35.70;44.40;;;;;;6176044;28;20054;-80
2022/07/22 11:38:48;;;;;;;4.55;2.60;;;36.20;43.80;;;;;;6195815;28;20049;-80
2022/07/22 11:41:51;;;;;;;4.30;2.38;;;36.40;42.50;;;;;;6178323;28;20181;-80
2022/07/22 11:44:52;;;;;;;4.20;2.72;;;36.50;42.70;;;;;;6175239;28;20046;-79
2022/07/22 11:47:55;;;;;;;5.43;3.13;;;37.00;42.20;;;;;;6175408;28;20047;-82
2022/07/22 11:51:00;;;;;;;4.93;2.83;;;37.20;41.30;;;;;;6175106;28;20460;-80
2022/07/22 11:54:03;;;;;;;4.57;2.53;;;36.90;41.30;;;;;;6175441;28;20419;-79
2022/07/22 11:57:04;;;;;;;3.25;2.47;;;36.90;41.60;;;;;;6177252;28;20509;-82
2022/07/22 12:00:08;;;;;;;2.83;2.00;;;37.20;41.20;;;;;;6205713;23;20546;-78
2022/07/22 12:03:11;;;;;;;6.43;2.97;;;37.60;41.60;;;;;;6202086;28;20046;-78
2022/07/22 12:06:14;;;;;;;4.22;2.50;;;38.10;40.40;;;;;;6200574;28;20053;-78
2022/07/22 12:09:21;;;;;;;4.25;2.53;;;38.60;40.10;;;;;;6200147;28;20542;-77
2022/07/22 12:12:40;;;;;;;4.63;2.60;;;38.80;40.10;;;;;;6201296;28;20053;-79
2022/07/22 12:15:42;;;;;;;4.15;1.90;;;39.00;40.00;;;;;;6198882;28;20054;-78
2022/07/22 12:18:50;;;;;;;5.07;2.40;;;39.10;39.40;;;;;;6174615;28;20054;-77
2022/07/22 12:21:55;;;;;;;4.10;2.45;;;38.60;39.60;;;;;;6175660;28;20047;-80
2022/07/22 12:25:02;;;;;;;4.00;2.47;;;38.70;39.90;;;;;;6176499;28;20054;-78
2022/07/22 12:28:03;;;;;;;5.22;2.25;;;38.70;39.80;;;;;;6178100;28;20408;-81
2022/07/22 12:31:05;;;;;;;7.40;2.60;;;38.80;39.60;;;;;;6178086;28;20054;-80
2022/07/22 12:34:08;;;;;;;5.45;2.33;;;38.90;39.40;;;;;;6177477;28;20047;-80
2022/07/22 12:37:19;;;;;;;7.53;2.20;;;39.20;38.70;;;;;;6177187;28;20042;-80
2022/07/22 12:40:23;;;;;;;6.65;2.70;;;39.40;38.40;;;;;;6174768;28;20051;-77
2022/07/22 12:43:27;;;;;;;3.05;2.20;;;39.50;38.30;;;;;;6177180;28;20053;-78
2022/07/22 12:46:29;;;;;;;10.80;3.53;;;39.50;38.40;;;;;;6199470;28;20530;-78
2022/07/22 12:49:32;;;;;;;3.17;1.90;;;39.60;38.10;;;;;;6199142;28;20500;-78
2022/07/22 12:52:33;;;;;;;3.35;2.45;;;39.50;37.90;;;;;;6201472;28;20054;-80
2022/07/22 12:55:37;;;;;;;7.55;2.60;;;39.50;37.90;;;;;;6199857;28;20042;-79
2022/07/22 12:58:40;;;;;;;5.63;3.13;;;39.70;37.70;;;;;;6202540;28;20050;-79
2022/07/22 13:01:42;;;;;;;4.65;2.08;;;39.50;37.80;;;;;;6200247;28;20050;-78
2022/07/22 13:04:45;;;;;;;3.65;2.05;;;39.40;37.90;;;;;;6208422;28;20524;-78
2022/07/22 13:07:47;;;;;;;3.53;1.88;;;39.30;38.10;;;;;;6224996;28;20060;-78
2022/07/22 13:10:50;;;;;;;4.85;2.42;;;39.10;37.80;;;;;;6225494;28;20145;-78
2022/07/22 13:13:51;;;;;;;4.72;2.30;;;38.60;38.00;;;;;;6224425;28;20049;-78
2022/07/22 13:16:53;;;;;;;4.32;2.17;;;38.60;38.60;;;;;;6225024;28;20439;-78
2022/07/22 13:19:56;;;;;;;12.40;2.83;;;39.00;38.40;;;;;;6227733;28;20060;-79
2022/07/22 13:22:58;;;;;;;5.80;2.28;;;39.50;37.90;;;;;;6234205;28;20054;-78
2022/07/22 13:25:59;;;;;;;4.22;2.60;;;39.70;37.40;;;;;;6233358;28;20070;-80
2022/07/22 13:29:01;;;;;;;3.75;2.35;;;39.90;37.30;;;;;;6231825;28;20056;-80
2022/07/22 13:32:03;;;;;;;5.70;2.38;;;40.10;36.90;;;;;;6228934;28;20049;-79
2022/07/22 13:35:08;;;;;;;2.65;2.17;;;40.20;36.70;;;;;;6219920;28;20054;-80
2022/07/22 13:38:10;;;;;;;4.13;2.08;;;40.40;36.80;;;;;;6227964;28;20045;-79
2022/07/22 13:41:17;;;;;;;4.85;2.35;;;40.10;36.20;;;;;;6205840;28;20042;-80
2022/07/22 13:44:19;;;;;;;8.25;2.22;;;39.40;36.70;;;;;;6205780;28;20046;-80
2022/07/22 13:47:22;;;;;;;4.13;2.08;;;39.10;37.40;;;;;;6206209;28;20058;-81
2022/07/22 13:50:25;;;;;;;5.55;2.42;;;39.40;37.30;;;;;;6204737;28;20052;-80
2022/07/22 13:53:27;;;;;;;4.15;2.10;;;39.50;37.30;;;;;;6205259;28;20057;-81
2022/07/22 13:56:29;;;;;;;6.97;2.75;;;39.50;36.90;;;;;;6204449;28;20050;-79
2022/07/22 13:59:31;;;;;;;3.28;1.88;;;39.50;37.30;;;;;;6204728;28;20050;-80
2022/07/22 14:02:33;;;;;;;6.65;2.38;;;39.70;36.90;;;;;;6179754;28;20047;-78
2022/07/22 14:05:36;;;;;;;11.20;2.53;;;39.90;36.50;;;;;;6178986;28;20042;-80
2022/07/22 14:08:38;;;;;;;7.75;2.35;;;39.80;36.70;;;;;;6189416;28;20057;-79
2022/07/22 14:11:39;;;;;;;5.10;2.38;;;40.10;36.50;;;;;;6205901;28;20076;-79
2022/07/22 14:14:41;;;;;;;3.00;1.98;;;40.30;36.40;;;;;;6207926;28;20049;-79
2022/07/22 14:17:43;;;;;;;4.22;2.13;;;40.30;36.60;;;;;;6202053;28;20046;-79
2022/07/22 14:20:46;;;;;;;3.90;2.55;;;40.20;36.40;;;;;;6195648;28;20055;-79
2022/07/22 14:23:48;;;;;;;2.70;2.08;;;40.30;36.30;;;;;;6180376;28;20174;-79
2022/07/22 14:26:49;;;;;;;5.25;1.90;;;40.20;36.30;;;;;;6180800;28;20058;-80
2022/07/22 14:29:51;;;;;;;3.88;2.38;;;40.00;36.50;;;;;;6182339;28;20527;-81
2022/07/22 14:32:53;;;;;;;2.63;1.95;;;40.00;36.50;;;;;;6183445;28;20070;-82
2022/07/22 14:35:56;;;;;;;7.63;2.50;;;40.10;36.40;;;;;;6179378;28;20538;-79
2022/07/22 14:38:58;;;;;;;2.28;1.80;;;40.10;36.50;;;;;;6180433;28;20401;-79
2022/07/22 14:42:00;;;;;;;4.13;2.30;;;40.10;36.50;;;;;;6180166;28;20053;-78
2022/07/22 14:45:04;;;;;;;5.82;2.42;;;40.10;36.30;;;;;;6180967;28;20043;-78
2022/07/22 14:48:07;;;;;;;4.13;2.05;;;40.10;36.20;;;;;;6182598;28;20109;-78
2022/07/22 14:51:10;;;;;;;4.30;1.88;;;39.90;36.10;;;;;;6182711;28;20050;-79
2022/07/22 14:54:12;;;;;;;5.35;2.40;;;39.70;36.10;;;;;;6180701;28;20050;-79
2022/07/22 14:57:14;;;;;;;5.53;1.95;;;39.60;36.20;;;;;;6181344;28;20500;-79
2022/07/22 15:00:16;;;;;;;5.35;2.40;;;39.50;36.60;;;;;;6181590;28;20527;-79
2022/07/22 15:03:17;;;;;;;4.45;1.52;;;39.40;36.60;;;;;;6180594;28;20051;-80
2022/07/22 15:06:22;;;;;;;5.22;2.17;;;39.40;36.80;;;;;;6179511;28;20054;-80
2022/07/22 15:09:23;;;;;;;3.45;2.08;;;39.50;36.50;;;;;;6181988;28;20058;-80
2022/07/22 15:12:25;;;;;;;3.40;2.03;;;39.50;36.50;;;;;;6182366;28;20051;-79
2022/07/22 15:15:27;;;;;;;4.63;2.38;;;39.50;36.40;;;;;;6180749;28;20439;-80
2022/07/22 15:18:29;;;;;;;4.53;2.50;;;39.60;36.20;;;;;;6181629;28;20043;-80
2022/07/22 15:21:32;;;;;;;5.50;1.83;;;39.70;36.10;;;;;;6181601;28;20074;-80
2022/07/22 15:24:37;;;;;;;5.57;2.40;;;39.80;35.90;;;;;;6183687;28;20509;-80
2022/07/22 15:27:39;;;;;;;2.85;2.10;;;39.80;35.80;;;;;;6178754;28;20141;-79
2022/07/22 15:30:41;;;;;;;3.63;2.42;;;39.80;35.60;;;;;;6179847;28;20047;-78
2022/07/22 15:33:44;;;;;;;4.60;2.78;;;39.70;36.00;;;;;;6179253;28;20526;-79
2022/07/22 15:36:47;;;;;;;2.83;1.75;;;39.80;35.70;;;;;;6178863;28;20070;-79
2022/07/22 15:39:49;;;;;;;5.72;2.50;;;39.80;35.60;;;;;;6179051;28;20060;-79
2022/07/22 15:42:51;;;;;;;6.70;2.30;;;39.80;35.80;;;;;;6179519;28;20047;-79
2022/07/22 15:45:52;;;;;;;7.00;2.30;;;39.80;36.00;;;;;;6180449;28;20059;-79
2022/07/22 15:48:54;;;;;;;3.28;2.25;;;39.70;35.70;;;;;;6179549;28;20066;-81